Data for 12/28/2013

Time Sea-Level Adjusted Pressure Absolute Pressure Temperature Relative Humidity Dew Point   
(mb) (inHg) (mb) (inHg) (C) (F) (%) (C) (F)
00:05 1015 29.97 845 24.95 3.2 37.7 40 -9.2 15.4
00:10 1015 29.97 845 24.95 3.2 37.7 39 -9.7 14.6
00:15 1015 29.97 845 24.95 3.5 38.4 37 -9.9 14.1
00:20 1016 30 845 24.95 4 39.3 36 -9.7 14.5
00:25 1016 30 845 24.95 4.2 39.6 35 -10 14
00:30 1015 29.97 845 24.95 4.3 39.8 35 -9.8 14.4
00:35 1015 29.97 845 24.95 4.5 40.1 35 -9.8 14.4
00:40 1015 29.97 845 24.95 4.7 40.4 35 -9.6 14.6
00:45 1015 29.97 845 24.95 4.6 40.4 36 -9.1 15.6
00:50 1015 29.97 845 24.95 4 39.1 40 -8.3 17
00:55 1015 29.97 844 24.92 3 37.4 41 -9 15.9
01:00 1015 29.97 844 24.92 2.9 37.2 42 -8.9 16
01:05 1015 29.97 844 24.92 2.8 37.1 42 -8.7 16.3
01:10 1015 29.97 844 24.92 2.2 35.9 46 -8.4 16.9
01:15 1015 29.97 844 24.92 2.2 36 41 -9.7 14.5
01:20 1015 29.97 844 24.92 3 37.3 38 -9.9 14.1
01:25 1015 29.97 844 24.92 3.6 38.4 38 -9.5 14.8
01:30 1015 29.97 844 24.92 3.6 38.4 37 -9.8 14.3
01:35 1015 29.97 844 24.92 3.7 38.6 41 -8.5 16.6
01:40 1015 29.97 844 24.92 3.2 37.8 37 -10.1 13.8
01:45 1015 29.97 844 24.92 3.9 39 36 -10 14
01:50 1015 29.97 844 24.92 4.2 39.5 36 -9.5 15
01:55 1015 29.97 844 24.92 4.1 39.3 35 -9.9 14.1
02:00 1015 29.97 844 24.92 4.3 39.7 37 -9.3 15.3
02:05 1015 29.97 844 24.92 4.2 39.6 36 -9.7 14.6
02:10 1015 29.97 844 24.92 4.1 39.4 36 -9.7 14.5
02:15 1015 29.97 844 24.92 4 39.2 37 -9.4 15.2
02:20 1015 29.97 844 24.92 3.8 38.8 37 -9.5 14.9
02:25 1015 29.97 844 24.92 3.5 38.2 41 -8.7 16.4
02:30 1015 29.97 844 24.92 3 37.3 42 -8.9 16
02:35 1015 29.97 844 24.92 2.9 37.3 43 -8.6 16.5
02:40 1015 29.97 844 24.92 3 37.4 40 -9.5 14.9
02:45 1015 29.97 844 24.92 3.5 38.3 38 -9.7 14.5
02:50 1015 29.97 844 24.92 3.8 38.9 37 -9.5 15
02:55 1015 29.97 844 24.92 3.8 38.9 39 -9 15.8
03:00 1015 29.97 844 24.92 3.8 38.9 37 -9.4 15
03:05 1015 29.97 844 24.92 4.1 39.4 37 -9.5 15
03:10 1015 29.97 844 24.92 4.3 39.7 36 -9.4 15.1
03:15 1015 29.97 844 24.92 4.3 39.7 36 -9.4 15.1
03:20 1015 29.97 844 24.92 4.3 39.8 35 -9.9 14.2
03:25 1015 29.97 844 24.92 4.5 40.1 35 -9.6 14.7
03:30 1015 29.97 844 24.92 4.5 40.1 34 -9.8 14.3
03:35 1015 29.97 845 24.95 4.4 39.9 36 -9.3 15.2
03:40 1015 29.97 845 24.95 4.1 39.5 36 -9.7 14.6
03:45 1015 29.97 845 24.95 4.1 39.4 38 -9.1 15.7
03:50 1015 29.97 845 24.95 3.9 39 37 -9.6 14.7
03:55 1015 29.97 845 24.95 4 39.1 36 -9.7 14.5
04:00 1015 29.97 845 24.95 4 39.2 37 -9.4 15.1
04:05 1016 30 845 24.95 3.9 39 38 -9 15.7
04:10 1016 30 845 24.95 3.7 38.7 38 -9.5 14.9
04:15 1016 30 845 24.95 3.8 38.8 40 -8.8 16.2
04:20 1016 30 845 24.95 3.6 38.5 37 -9.6 14.7
04:25 1016 30 845 24.95 3.8 38.8 38 -9.4 15.1
04:30 1016 30 845 24.95 3.7 38.7 39 -9 15.8
04:35 1016 30 845 24.95 3.4 38.2 41 -8.7 16.3
04:40 1016 30 845 24.95 3.2 37.7 41 -8.9 16
04:45 1016 30 845 24.95 3.2 37.8 38 -9.6 14.7
04:50 1016 30 845 24.95 3.5 38.3 39 -9.2 15.5
04:55 1016 30 845 24.95 3.5 38.3 38 -9.5 15
05:00 1016 30 846 24.98 3.6 38.4 39 -9.2 15.4
05:05 1016 30 846 24.98 3.5 38.3 40 -8.9 16.1
05:10 1016 30 846 24.98 3.3 37.9 41 -8.7 16.3
05:15 1017 30.03 846 24.98 3.1 37.6 42 -8.8 16.2
05:20 1017 30.03 846 24.98 3 37.3 42 -8.7 16.4
05:25 1017 30.03 846 24.98 2.8 37.1 45 -7.9 17.7
05:30 1017 30.03 846 24.98 2.6 36.7 46 -7.8 18
05:35 1017 30.03 846 24.98 2.2 36 50 -7.2 19.1
05:40 1017 30.03 846 24.98 2 35.6 51 -7.2 19.1
05:45 1017 30.03 846 24.98 2 35.6 51 -7 19.4
05:50 1017 30.03 846 24.98 2 35.5 53 -6.7 19.9
05:55 1017 30.03 846 24.98 1.9 35.4 54 -6.3 20.6
06:00 1017 30.03 846 24.98 1.9 35.5 55 -6.2 20.8
06:05 1017 30.03 846 24.98 1.9 35.5 55 -6.3 20.7
06:10 1017 30.03 847 25.01 2 35.5 55 -6.3 20.7
06:15 1018 30.06 847 25.01 2 35.6 55 -6 21.2
06:20 1018 30.06 847 25.01 2 35.6 56 -5.9 21.4
06:25 1018 30.06 847 25.01 2 35.5 57 -5.7 21.7
06:30 1018 30.06 847 25.01 2 35.6 57 -5.6 21.9
06:35 1018 30.06 847 25.01 2.1 35.7 58 -5.3 22.4
06:40 1018 30.06 847 25.01 2 35.6 59 -5.3 22.5
06:45 1018 30.06 847 25.01 1.9 35.5 59 -5.2 22.6
06:50 1018 30.06 847 25.01 2 35.6 60 -4.9 23.3
06:55 1018 30.06 847 25.01 1.8 35.2 63 -4.6 23.8
07:00 1018 30.06 847 25.01 1.3 34.4 64 -4.7 23.5
07:05 1018 30.06 848 25.04 1.2 34.1 65 -4.6 23.7
07:10 1018 30.06 848 25.04 1.3 34.4 63 -4.9 23.1
07:15 1018 30.06 848 25.04 1.8 35.2 63 -4.6 23.8
07:20 1019 30.09 848 25.04 1.7 35.1 65 -4.2 24.4
07:25 1019 30.09 848 25.04 1.6 35 64 -4.4 24
07:30 1019 30.09 848 25.04 1.6 34.9 66 -4 24.8
07:35 1019 30.09 848 25.04 1.5 34.6 68 -3.8 25.1
07:40 1019 30.09 848 25.04 1.3 34.4 69 -3.8 25.1
07:45 1019 30.09 848 25.04 1.4 34.5 67 -4.2 24.5
07:50 1019 30.09 848 25.04 1.6 34.9 65 -4.2 24.4
07:55 1019 30.09 848 25.04 1.7 35.1 65 -4.2 24.5
08:00 1019 30.09 848 25.04 1.7 35.1 66 -4 24.8
08:05 1019 30.09 848 25.04 1.6 34.9 65 -4.3 24.3
08:10 1019 30.09 848 25.04 1.5 34.8 66 -4.1 24.6
08:15 1019 30.09 849 25.07 1.3 34.3 67 -4.2 24.5
08:20 1019 30.09 849 25.07 1.2 34.2 67 -4.1 24.5
08:25 1020 30.12 849 25.07 1.2 34.1 67 -4.2 24.4
08:30 1020 30.12 849 25.07 1.2 34.1 67 -4.2 24.4
08:35 1020 30.12 849 25.07 1.2 34.1 65 -4.6 23.6
08:40 1020 30.12 849 25.07 1.1 33.9 64 -4.9 23.1
08:45 1020 30.12 849 25.07 0.9 33.6 64 -5.2 22.6
08:50 1020 30.12 850 25.1 0.4 32.7 63 -5.9 21.4
08:55 1020 30.12 850 25.1 -0.3 31.5 64 -6.2 20.8
09:00 1020 30.12 850 25.1 -0.7 30.8 65 -6.4 20.5
09:05 1020 30.12 850 25.1 -1 30.3 67 -6.4 20.4
09:10 1020 30.12 850 25.1 -1.3 29.7 67 -6.7 20
09:15 1021 30.15 850 25.1 -1.6 29.1 67 -7 19.5
09:20 1021 30.15 850 25.1 -1.9 28.6 67 -7.2 19.1
09:25 1021 30.15 850 25.1 -2.2 28.1 68 -7.2 19
09:30 1021 30.15 850 25.1 -2.7 27.2 71 -7.2 19
09:35 1021 30.15 850 25.1 -3.1 26.5 71 -7.7 18.2
09:40 1021 30.15 850 25.1 -3.3 26 71 -7.9 17.7
09:45 1022 30.18 851 25.13 -3.3 26.1 71 -7.8 18
09:50 1022 30.18 851 25.13 -3.3 26.1 72 -7.6 18.3
09:55 1022 30.18 851 25.13 -3.6 25.6 72 -7.9 17.8
10:00 1022 30.18 851 25.13 -3.6 25.6 70 -8.3 17.1
10:05 1022 30.18 851 25.13 -3.5 25.7 68 -8.5 16.7
10:10 1022 30.18 852 25.16 -3.4 25.8 69 -8.2 17.2
10:15 1022 30.18 852 25.16 -3.5 25.7 71 -8.1 17.4
10:20 1022 30.18 852 25.16 -3.6 25.5 74 -7.7 18.2
10:25 1022 30.18 852 25.16 -3.7 25.3 74 -7.6 18.2
10:30 1023 30.21 852 25.16 -3.8 25.1 75 -7.6 18.4
10:35 1023 30.21 852 25.16 -3.8 25.1 73 -8 17.6
10:40 1023 30.21 852 25.16 -4.1 24.6 73 -8.2 17.2
10:45 1023 30.21 852 25.16 -4.3 24.3 72 -8.7 16.4
10:50 1023 30.21 852 25.16 -4.4 24.2 72 -8.7 16.3
10:55 1023 30.21 852 25.16 -4.4 24 69 -9.2 15.4
11:00 1023 30.21 852 25.16 -4.6 23.7 71 -9.2 15.5
11:05 1023 30.21 852 25.16 -4.7 23.5 70 -9.3 15.2
11:10 1023 30.21 852 25.16 -4.8 23.3 70 -9.4 15
11:15 1023 30.21 853 25.19 -4.9 23.2 71 -9.4 15.1
11:20 1024 30.24 853 25.19 -5.1 22.9 70 -9.7 14.6
11:25 1024 30.24 853 25.19 -5.2 22.7 70 -9.8 14.3
11:30 1024 30.24 853 25.19 -5.3 22.5 72 -9.6 14.7
11:35 1024 30.24 853 25.19 -5.1 22.9 72 -9.4 15.1
11:40 1024 30.24 853 25.19 -4.9 23.2 71 -9.3 15.2
11:45 1024 30.24 853 25.19 -5.1 22.9 72 -9.4 15.1
11:50 1024 30.24 853 25.19 -5.3 22.5 73 -9.4 15.1
11:55 1024 30.24 853 25.19 -5.1 22.8 72 -9.4 15
12:00 1024 30.24 853 25.19 -5.1 22.8 72 -9.5 15
12:05 1024 30.24 853 25.19 -5.3 22.5 71 -9.8 14.3
12:10 1024 30.24 853 25.19 -5.4 22.2 71 -9.8 14.3
12:15 1024 30.24 853 25.19 -5.4 22.2 71 -10 14
12:20 1024 30.24 853 25.19 -5.7 21.7 72 -10 14
12:25 1024 30.24 854 25.22 -5.7 21.7 72 -10 14.1
12:30 1024 30.24 854 25.22 -5.5 22.2 71 -10 14
12:35 1024 30.24 853 25.19 -5.5 22.1 70 -10.1 13.9
12:40 1024 30.24 853 25.19 -5.4 22.2 70 -10 13.9
12:45 1024 30.24 854 25.22 -5.3 22.4 69 -10.1 13.8
12:50 1024 30.24 854 25.22 -5.4 22.3 70 -10.1 13.8
12:55 1024 30.24 854 25.22 -5.6 21.8 71 -10.2 13.7
13:00 1024 30.24 854 25.22 -5.6 22 71 -10.1 13.8
13:05 1024 30.24 853 25.19 -5.4 22.3 70 -10 14
13:10 1024 30.24 853 25.19 -5.4 22.2 72 -9.8 14.4
13:15 1024 30.24 853 25.19 -5.5 22.2 72 -9.7 14.6
13:20 1024 30.24 853 25.19 -5.5 22.1 72 -9.7 14.5
13:25 1024 30.24 853 25.19 -5.7 21.7 73 -9.9 14.2
13:30 1024 30.24 853 25.19 -5.7 21.8 73 -9.7 14.5
13:35 1024 30.24 854 25.22 -5.5 22.1 73 -9.6 14.8
13:40 1024 30.24 854 25.22 -5.5 22.1 72 -9.7 14.5
13:45 1024 30.24 854 25.22 -5.7 21.8 71 -10.1 13.7
13:50 1024 30.24 853 25.19 -5.8 21.6 71 -10.2 13.7
13:55 1024 30.24 853 25.19 -5.6 21.9 72 -10 14.1
14:00 1024 30.24 853 25.19 -5.4 22.3 70 -10 13.9
14:05 1024 30.24 853 25.19 -5.5 22.1 68 -10.6 13
14:10 1024 30.24 853 25.19 -5.5 22.1 68 -10.6 12.9
14:15 1024 30.24 853 25.19 -5.5 22 68 -10.6 12.9
14:20 1024 30.24 853 25.19 -5.4 22.2 67 -10.6 13
14:25 1024 30.24 854 25.22 -5.4 22.2 67 -10.6 12.9
14:30 1024 30.24 854 25.22 -5.6 21.9 67 -10.9 12.4
14:35 1024 30.24 854 25.22 -5.8 21.5 66 -11.1 12
14:40 1024 30.24 854 25.22 -6 21.3 66 -11.2 11.8
14:45 1024 30.24 854 25.22 -6.1 21.1 68 -11 12.1
14:50 1024 30.24 853 25.19 -6 21.1 69 -10.9 12.5
14:55 1024 30.24 853 25.19 -6 21.2 69 -10.8 12.6
15:00 1024 30.24 853 25.19 -5.9 21.3 70 -10.6 12.9
15:05 1024 30.24 853 25.19 -5.9 21.4 70 -10.5 13.1
15:10 1024 30.24 853 25.19 -6.1 21 70 -10.6 12.9
15:15 1024 30.24 853 25.19 -6.3 20.6 73 -10.5 13.1
15:20 1024 30.24 853 25.19 -6.1 21.1 70 -10.8 12.6
15:25 1024 30.24 853 25.19 -6 21.2 70 -10.7 12.7
15:30 1024 30.24 853 25.19 -5.9 21.4 72 -10.2 13.6
15:35 1024 30.24 853 25.19 -6 21.2 71 -10.5 13.1
15:40 1024 30.24 853 25.19 -6 21.1 71 -10.5 13.1
15:45 1024 30.24 853 25.19 -5.9 21.4 69 -10.6 12.8
15:50 1024 30.24 853 25.19 -5.7 21.7 68 -10.7 12.8
15:55 1024 30.24 853 25.19 -5.5 22.1 68 -10.5 13
16:00 1024 30.24 853 25.19 -5.6 21.9 68 -10.5 13
16:05 1024 30.24 853 25.19 -5.7 21.8 70 -10.4 13.3
16:10 1024 30.24 853 25.19 -5.9 21.4 71 -10.4 13.3
16:15 1024 30.24 853 25.19 -6.2 20.9 72 -10.5 13.1
16:20 1024 30.24 853 25.19 -6.2 20.9 71 -10.6 13
16:25 1024 30.24 853 25.19 -6.4 20.6 73 -10.5 13.1
16:30 1024 30.24 854 25.22 -6.6 20.2 73 -10.7 12.7
16:35 1024 30.24 854 25.22 -6.5 20.2 73 -10.6 12.9
16:40 1024 30.24 854 25.22 -6.4 20.4 73 -10.5 13
16:45 1024 30.24 854 25.22 -6.4 20.5 73 -10.5 13.2
16:50 1024 30.24 854 25.22 -6.3 20.6 73 -10.5 13.1
16:55 1024 30.24 854 25.22 -6 21.1 70 -10.7 12.8
17:00 1024 30.24 854 25.22 -6.1 21 71 -10.5 13
17:05 1024 30.24 854 25.22 -6.3 20.6 72 -10.5 13.1
17:10 1024 30.24 854 25.22 -6.4 20.5 72 -10.6 13
17:15 1025 30.27 854 25.22 -6.2 20.8 71 -10.6 13
17:20 1025 30.27 854 25.22 -6.2 20.8 72 -10.5 13.1
17:25 1025 30.27 854 25.22 -6 21.2 71 -10.4 13.3
17:30 1025 30.27 854 25.22 -5.9 21.3 71 -10.3 13.4
17:35 1025 30.27 854 25.22 -6.2 20.9 72 -10.4 13.3
17:40 1025 30.27 854 25.22 -6.3 20.6 73 -10.4 13.3
17:45 1025 30.27 854 25.22 -6.4 20.5 73 -10.4 13.3
17:50 1025 30.27 854 25.22 -6.6 20 75 -10.3 13.5
17:55 1024 30.24 854 25.22 -6.8 19.8 77 -10.2 13.7
18:00 1024 30.24 854 25.22 -6.8 19.7 77 -10.2 13.7
18:05 1024 30.24 854 25.22 -6.8 19.7 78 -10.1 13.8
18:10 1024 30.24 854 25.22 -6.9 19.7 78 -10 13.9
18:15 1024 30.24 854 25.22 -6.8 19.8 76 -10.2 13.6
18:20 1025 30.27 854 25.22 -6.7 20 76 -10.2 13.7
18:25 1024 30.24 854 25.22 -6.7 20 76 -10.2 13.7
18:30 1024 30.24 854 25.22 -6.7 19.9 76 -10.3 13.5
18:35 1024 30.24 854 25.22 -6.7 19.9 76 -10.2 13.6
18:40 1025 30.27 854 25.22 -6.7 20 76 -10.2 13.6
18:45 1025 30.27 854 25.22 -6.6 20 75 -10.3 13.4
18:50 1024 30.24 854 25.22 -6.6 20.1 76 -10.2 13.6
18:55 1024 30.24 854 25.22 -6.6 20.1 76 -10.2 13.6
19:00 1024 30.24 854 25.22 -6.6 20.2 76 -10.1 13.8
19:05 1024 30.24 854 25.22 -6.6 20.2 76 -10.1 13.8
19:10 1024 30.24 854 25.22 -6.5 20.3 76 -10.1 13.8
19:15 1025 30.27 854 25.22 -6.5 20.4 76 -10 13.9
19:20 1025 30.27 854 25.22 -6.4 20.4 76 -9.9 14.1
19:25 1025 30.27 854 25.22 -6.5 20.3 77 -9.9 14.2
19:30 1025 30.27 854 25.22 -6.4 20.4 76 -10 13.9
19:35 1025 30.27 854 25.22 -6.4 20.5 76 -9.9 14.1
19:40 1025 30.27 854 25.22 -6.3 20.6 75 -10 14
19:45 1025 30.27 854 25.22 -6.5 20.3 75 -10.2 13.7
19:50 1025 30.27 854 25.22 -6.7 20 76 -10.2 13.6
19:55 1025 30.27 854 25.22 -6.7 20 76 -10.2 13.6
20:00 1025 30.27 854 25.22 -6.7 19.9 77 -10.1 13.7
20:05 1025 30.27 854 25.22 -6.8 19.7 77 -10.1 13.8
20:10 1025 30.27 854 25.22 -6.8 19.8 78 -10.1 13.9
20:15 1025 30.27 854 25.22 -6.7 20 77 -10.1 13.9
20:20 1025 30.27 854 25.22 -6.7 20 77 -10.1 13.8
20:25 1025 30.27 854 25.22 -6.9 19.6 78 -10.1 13.9
20:30 1025 30.27 854 25.22 -6.9 19.6 77 -10.2 13.7
20:35 1025 30.27 854 25.22 -6.8 19.8 77 -10.2 13.7
20:40 1025 30.27 854 25.22 -6.8 19.8 77 -10.1 13.8
20:45 1025 30.27 854 25.22 -6.7 19.9 78 -10 13.9
20:50 1025 30.27 854 25.22 -6.9 19.7 78 -10.1 13.9
20:55 1025 30.27 854 25.22 -7 19.4 78 -10.2 13.6
21:00 1025 30.27 854 25.22 -7.2 19.1 78 -10.3 13.5
21:05 1025 30.27 854 25.22 -7.2 19 79 -10.3 13.5
21:10 1025 30.27 854 25.22 -7.3 18.9 79 -10.3 13.4
21:15 1025 30.27 854 25.22 -7.3 18.9 79 -10.3 13.5
21:20 1025 30.27 854 25.22 -7.3 18.9 79 -10.3 13.5
21:25 1025 30.27 854 25.22 -7.2 19 79 -10.3 13.5
21:30 1025 30.27 854 25.22 -7.3 18.9 79 -10.3 13.5
21:35 1025 30.27 854 25.22 -7.3 18.8 80 -10.3 13.5
21:40 1025 30.27 854 25.22 -7.5 18.6 80 -10.3 13.4
21:45 1025 30.27 854 25.22 -7.6 18.3 81 -10.4 13.3
21:50 1025 30.27 854 25.22 -7.7 18.1 82 -10.3 13.4
21:55 1025 30.27 854 25.22 -7.8 18 82 -10.4 13.3
22:00 1025 30.27 854 25.22 -7.7 18.1 81 -10.4 13.4
22:05 1025 30.27 854 25.22 -7.7 18.1 81 -10.5 13.2
22:10 1025 30.27 854 25.22 -7.9 17.8 81 -10.6 12.9
22:15 1025 30.27 854 25.22 -8 17.6 81 -10.8 12.6
22:20 1025 30.27 854 25.22 -8 17.5 81 -10.7 12.7
22:25 1025 30.27 854 25.22 -8 17.6 82 -10.6 12.9
22:30 1025 30.27 854 25.22 -7.9 17.8 81 -10.6 12.9
22:35 1025 30.27 854 25.22 -7.8 18 80 -10.6 12.9
22:40 1025 30.27 854 25.22 -7.7 18.1 80 -10.5 13
22:45 1025 30.27 854 25.22 -7.8 18 81 -10.5 13
22:50 1025 30.27 854 25.22 -7.9 17.9 80 -10.7 12.8
22:55 1025 30.27 854 25.22 -8 17.7 81 -10.7 12.7
23:00 1025 30.27 854 25.22 -8.1 17.4 81 -10.8 12.6
23:05 1025 30.27 854 25.22 -8.3 17.1 82 -10.8 12.6
23:10 1025 30.27 854 25.22 -8.4 16.9 83 -10.8 12.5
23:15 1025 30.27 854 25.22 -8.4 17 83 -10.7 12.8
23:20 1025 30.27 854 25.22 -8.3 17.1 83 -10.6 12.9
23:25 1025 30.27 854 25.22 -8.2 17.3 83 -10.6 12.9
23:30 1025 30.27 854 25.22 -8.2 17.3 83 -10.5 13.1
23:35 1025 30.27 854 25.22 -8.2 17.3 83 -10.6 13
23:40 1025 30.27 854 25.22 -8.3 17.2 84 -10.6 13
23:45 1025 30.27 854 25.22 -8.4 16.9 84 -10.6 13
23:50 1025 30.27 854 25.22 -8.4 16.8 85 -10.6 12.9
23:55 1025 30.27 854 25.22 -8.4 16.9 84 -10.6 12.9
24:00 1025 30.27 854 25.22 -8.4 17 84 -10.6 13